Time;durP1;ratioP1;P1;durP2;ratioP2;P2;SDS_P1;SDS_P2;PMS_P1;PMS_P2;Temp;Humidity;BMP_temperature;BMP_pressure;BME280_temperature;BME280_humidity;BME280_pressure;Samples;Min_cycle;Max_cycle;Signal;HPM_P1;HPM_P2
2022/08/21 00:01:14;;;;;;;4.10;1.70;;;;;;;13.23;100.00;98828.06;5060328;28;20020;-58
2022/08/21 00:03:40;;;;;;;4.30;1.55;;;;;;;13.18;100.00;98824.31;5067811;28;20025;-58
2022/08/21 00:06:06;;;;;;;4.75;1.98;;;;;;;13.14;100.00;98823.94;5060183;28;20036;-58
2022/08/21 00:08:31;;;;;;;2.95;1.70;;;;;;;13.04;100.00;98827.13;5051657;28;20422;-58
2022/08/21 00:10:57;;;;;;;2.78;1.40;;;;;;;13.15;100.00;98825.56;5062063;28;20423;-58
2022/08/21 00:13:22;;;;;;;3.15;1.60;;;;;;;13.12;100.00;98826.03;5064733;28;20036;-58
2022/08/21 00:15:48;;;;;;;4.50;1.80;;;;;;;13.11;100.00;98824.38;5064892;28;20028;-58
2022/08/21 00:18:15;;;;;;;4.80;1.88;;;;;;;13.00;100.00;98825.91;5065276;28;20028;-58
2022/08/21 00:20:42;;;;;;;2.17;1.70;;;;;;;13.00;100.00;98822.38;5055102;28;20024;-58
2022/08/21 00:23:08;;;;;;;3.92;1.75;;;;;;;12.90;100.00;98822.81;5060078;28;20021;-58
2022/08/21 00:25:34;;;;;;;5.05;1.73;;;;;;;12.85;100.00;98822.66;5062735;28;20036;-58
2022/08/21 00:28:01;;;;;;;5.10;2.03;;;;;;;12.87;100.00;98821.38;5052091;28;20039;-58
2022/08/21 00:30:27;;;;;;;5.13;1.63;;;;;;;12.88;100.00;98819.50;5051787;28;20461;-58
2022/08/21 00:32:55;;;;;;;5.10;1.73;;;;;;;12.88;100.00;98809.47;5061610;28;20044;-58
2022/08/21 00:35:25;;;;;;;6.47;1.98;;;;;;;12.87;100.00;98815.94;5065255;28;20024;-58
2022/08/21 00:37:51;;;;;;;8.30;2.22;;;;;;;12.81;100.00;98807.84;5068407;28;20052;-58
2022/08/21 00:40:23;;;;;;;3.63;1.85;;;;;;;12.71;100.00;98814.59;5069036;28;20449;-58
2022/08/21 00:42:49;;;;;;;3.35;2.00;;;;;;;12.66;100.00;98816.28;5066367;28;20419;-58
2022/08/21 00:45:15;;;;;;;2.63;1.90;;;;;;;12.62;100.00;98820.47;5061646;28;20031;-58
2022/08/21 00:47:40;;;;;;;5.13;1.90;;;;;;;12.63;100.00;98814.00;5066426;28;20024;-58
2022/08/21 00:50:11;;;;;;;3.72;1.80;;;;;;;12.69;100.00;98808.53;5065352;28;20081;-58
2022/08/21 00:52:37;;;;;;;4.38;2.03;;;;;;;12.63;100.00;98800.44;5061275;28;20020;-58
2022/08/21 00:55:05;;;;;;;2.78;1.90;;;;;;;12.56;100.00;98807.78;5064756;28;20021;-59
2022/08/21 00:57:37;;;;;;;8.23;2.28;;;;;;;12.55;100.00;98808.81;5065014;28;20020;-59
2022/08/21 01:00:09;;;;;;;3.13;2.03;;;;;;;12.60;100.00;98818.00;5068224;28;20092;-59
2022/08/21 01:02:34;;;;;;;2.08;1.42;;;;;;;12.66;100.00;98806.25;5068611;28;20052;-59
2022/08/21 01:05:00;;;;;;;7.15;2.03;;;;;;;12.63;100.00;98805.88;5071374;28;20055;-59
2022/08/21 01:07:25;;;;;;;5.63;2.35;;;;;;;12.57;100.00;98807.53;5068152;28;20439;-59
2022/08/21 01:09:51;;;;;;;3.83;1.98;;;;;;;12.51;100.00;98819.25;5067846;28;20085;-59
2022/08/21 01:12:17;;;;;;;3.63;1.83;;;;;;;12.54;100.00;98809.84;5061086;28;20060;-59
2022/08/21 01:14:44;;;;;;;5.82;2.03;;;;;;;12.46;100.00;98816.38;5069517;28;20040;-59
2022/08/21 01:17:13;;;;;;;4.55;2.42;;;;;;;12.43;100.00;98817.63;5064849;28;20079;-59
2022/08/21 01:19:39;;;;;;;5.47;2.03;;;;;;;12.40;100.00;98812.63;5072882;28;20020;-59
2022/08/21 01:22:06;;;;;;;3.65;2.10;;;;;;;12.34;100.00;98805.38;5062161;28;20040;-59
2022/08/21 01:24:32;;;;;;;3.70;1.92;;;;;;;12.31;100.00;98810.38;5063486;28;20107;-59
2022/08/21 01:26:59;;;;;;;3.25;2.03;;;;;;;12.20;100.00;98806.44;5066641;28;20044;-59
2022/08/21 01:29:37;;;;;;;4.38;2.20;;;;;;;12.17;100.00;98806.88;5070295;28;20036;-59
2022/08/21 01:32:07;;;;;;;5.50;2.20;;;;;;;12.15;100.00;98811.66;5066675;28;20025;-59
2022/08/21 01:34:35;;;;;;;4.55;2.42;;;;;;;12.05;100.00;98812.97;5070335;28;20028;-59
2022/08/21 01:37:01;;;;;;;4.55;2.45;;;;;;;12.05;100.00;98815.69;5063974;28;20115;-59
2022/08/21 01:39:26;;;;;;;5.55;2.28;;;;;;;12.03;100.00;98815.06;5065100;28;20171;-59
2022/08/21 01:41:52;;;;;;;5.53;2.42;;;;;;;12.04;100.00;98815.88;5060228;28;20029;-59
2022/08/21 01:44:21;;;;;;;5.10;2.40;;;;;;;11.93;100.00;98806.53;5054974;28;20044;-59
2022/08/21 01:46:46;;;;;;;3.88;2.35;;;;;;;12.00;100.00;98810.06;5060461;28;20389;-58
2022/08/21 01:49:12;;;;;;;3.63;2.30;;;;;;;12.09;100.00;98812.53;5067131;28;20032;-58
2022/08/21 01:51:37;;;;;;;4.57;2.33;;;;;;;12.20;100.00;98812.69;5058887;28;20503;-58
2022/08/21 01:54:03;;;;;;;5.20;2.50;;;;;;;12.13;100.00;98806.47;5059044;28;20031;-58
2022/08/21 01:56:28;;;;;;;3.70;2.30;;;;;;;12.19;100.00;98805.63;5065765;28;20097;-58
2022/08/21 01:58:54;;;;;;;3.15;1.95;;;;;;;12.09;100.00;98804.41;5062509;28;20176;-58
2022/08/21 02:01:19;;;;;;;3.38;1.95;;;;;;;12.11;100.00;98802.31;5069687;28;20021;-58
2022/08/21 02:03:44;;;;;;;3.92;2.20;;;;;;;12.07;100.00;98796.47;5070061;28;20474;-58
2022/08/21 02:06:14;;;;;;;4.93;2.30;;;;;;;12.12;100.00;98793.94;5061874;28;20036;-58
2022/08/21 02:08:40;;;;;;;6.47;2.30;;;;;;;12.02;100.00;98794.38;5054694;28;20422;-58
2022/08/21 02:11:06;;;;;;;5.75;2.30;;;;;;;12.03;100.00;98790.66;5067116;28;20029;-58
2022/08/21 02:13:31;;;;;;;4.75;2.40;;;;;;;11.94;100.00;98794.63;5057347;28;20491;-58
2022/08/21 02:15:57;;;;;;;4.57;2.38;;;;;;;11.90;100.00;98792.56;5062718;28;20127;-58
2022/08/21 02:18:23;;;;;;;4.32;2.10;;;;;;;11.83;100.00;98798.78;5066744;28;20028;-58
2022/08/21 02:20:49;;;;;;;7.97;3.08;;;;;;;11.85;100.00;98787.75;5066083;28;20124;-58
2022/08/21 02:23:15;;;;;;;3.92;2.20;;;;;;;11.79;100.00;98789.44;5072534;28;20024;-58
2022/08/21 02:25:41;;;;;;;4.57;2.50;;;;;;;11.79;100.00;98780.47;5068984;28;20029;-58
2022/08/21 02:28:10;;;;;;;4.00;2.20;;;;;;;11.68;100.00;98789.22;5056429;28;20597;-58
2022/08/21 02:30:41;;;;;;;7.78;2.42;;;;;;;11.81;100.00;98781.88;5064396;28;20020;-58
2022/08/21 02:33:09;;;;;;;3.53;2.10;;;;;;;11.86;100.00;98781.28;5070295;28;20089;-58
2022/08/21 02:35:35;;;;;;;6.50;2.35;;;;;;;11.89;100.00;98782.75;5064147;28;20047;-58
2022/08/21 02:38:04;;;;;;;4.72;2.50;;;;;;;12.03;100.00;98776.25;5065759;28;20033;-58
2022/08/21 02:40:36;;;;;;;2.60;2.10;;;;;;;11.94;100.00;98781.06;5064276;28;20016;-58
2022/08/21 02:43:03;;;;;;;2.50;1.90;;;;;;;11.80;100.00;98787.53;5071244;28;20043;-58
2022/08/21 02:45:29;;;;;;;3.45;2.53;;;;;;;11.71;100.00;98786.09;5062925;28;20464;-58
2022/08/21 02:48:01;;;;;;;3.60;2.10;;;;;;;11.56;100.00;98779.03;5067097;28;20036;-58
2022/08/21 02:50:32;;;;;;;5.18;2.03;;;;;;;11.50;100.00;98782.59;5065563;28;20075;-58
2022/08/21 02:52:58;;;;;;;4.50;2.47;;;;;;;11.43;100.00;98787.16;5065520;28;20450;-58
2022/08/21 02:55:30;;;;;;;5.38;2.10;;;;;;;11.44;100.00;98779.88;5059227;28;20017;-58
2022/08/21 02:57:57;;;;;;;4.28;2.15;;;;;;;11.43;100.00;98789.06;5081420;28;20025;-58
2022/08/21 03:00:25;;;;;;;4.32;2.20;;;;;;;11.41;100.00;98787.38;5065552;28;20553;-58
2022/08/21 03:02:51;;;;;;;3.85;2.10;;;;;;;11.38;100.00;98786.97;5060629;28;20506;-58
2022/08/21 03:05:17;;;;;;;4.03;2.40;;;;;;;11.38;100.00;98789.69;5065198;28;20357;-58
2022/08/21 03:07:44;;;;;;;7.05;2.50;;;;;;;11.43;100.00;98783.63;5058219;28;20025;-58
2022/08/21 03:10:10;;;;;;;4.20;2.50;;;;;;;11.53;100.00;98786.75;5068860;28;20396;-58
2022/08/21 03:12:36;;;;;;;2.90;2.10;;;;;;;11.52;100.00;98787.78;5056788;28;20029;-58
2022/08/21 03:15:05;;;;;;;3.25;2.13;;;;;;;11.54;100.00;98786.53;5053732;28;20370;-58
2022/08/21 03:17:30;;;;;;;4.43;2.70;;;;;;;11.53;100.00;98787.59;5062177;28;20384;-58
2022/08/21 03:19:56;;;;;;;9.93;2.50;;;;;;;11.49;100.00;98796.34;5065963;28;20036;-58
2022/08/21 03:22:22;;;;;;;3.75;2.03;;;;;;;11.45;100.00;98787.81;5071572;28;20059;-58
2022/08/21 03:24:47;;;;;;;7.35;1.90;;;;;;;11.31;100.00;98795.06;5069694;28;20029;-58
2022/08/21 03:27:12;;;;;;;4.22;2.30;;;;;;;11.31;100.00;98788.84;5069926;28;20062;-58
2022/08/21 03:29:39;;;;;;;4.45;2.45;;;;;;;11.14;100.00;98786.53;5069136;28;20032;-58
2022/08/21 03:32:04;;;;;;;4.38;2.30;;;;;;;11.08;100.00;98789.22;5066474;28;20401;-58
2022/08/21 03:34:30;;;;;;;5.55;2.55;;;;;;;11.04;100.00;98785.28;5066475;28;20047;-58
2022/08/21 03:36:55;;;;;;;6.10;2.50;;;;;;;11.10;100.00;98789.88;5064871;28;20028;-58
2022/08/21 03:39:21;;;;;;;5.57;2.60;;;;;;;11.08;100.00;98791.94;5067658;28;20060;-58
2022/08/21 03:41:47;;;;;;;5.65;3.13;;;;;;;11.05;100.00;98790.47;5062648;28;20119;-59
2022/08/21 03:44:13;;;;;;;5.95;2.65;;;;;;;10.96;100.00;98794.44;5059345;28;20387;-58
2022/08/21 03:46:39;;;;;;;7.18;3.28;;;;;;;10.91;100.00;98780.69;5062871;28;20021;-59
2022/08/21 03:49:06;;;;;;;6.68;3.17;;;;;;;11.01;100.00;98781.13;5071248;28;20558;-58
2022/08/21 03:51:32;;;;;;;5.68;3.00;;;;;;;11.02;100.00;98793.59;5058762;28;20395;-58
2022/08/21 03:53:58;;;;;;;4.20;2.85;;;;;;;10.95;100.00;98806.28;5065719;28;20175;-58
2022/08/21 03:56:23;;;;;;;7.43;2.90;;;;;;;10.91;100.00;98802.34;5060966;28;20111;-59
2022/08/21 03:58:49;;;;;;;5.97;3.08;;;;;;;10.91;100.00;98807.75;5068655;28;21004;-57
2022/08/21 04:01:14;;;;;;;4.60;2.60;;;;;;;10.84;100.00;98805.03;5067295;28;20024;-57
2022/08/21 04:03:40;;;;;;;6.68;2.63;;;;;;;10.81;100.00;98804.59;5062146;28;20020;-58
2022/08/21 04:06:06;;;;;;;5.07;3.30;;;;;;;10.87;100.00;98801.94;5058102;28;20089;-58
2022/08/21 04:08:31;;;;;;;7.47;3.15;;;;;;;10.97;100.00;98806.94;5063790;28;20032;-58
2022/08/21 04:10:58;;;;;;;4.95;3.25;;;;;;;11.01;100.00;98808.19;5060690;28;20060;-58
2022/08/21 04:13:25;;;;;;;5.97;3.47;;;;;;;11.01;100.00;98812.78;5070743;28;20113;-58
2022/08/21 04:15:51;;;;;;;5.95;2.80;;;;;;;11.01;100.00;98810.06;5065408;28;20041;-58
2022/08/21 04:18:17;;;;;;;4.90;2.70;;;;;;;11.08;100.00;98819.88;5065868;28;20108;-58
2022/08/21 04:20:46;;;;;;;5.70;2.47;;;;;;;11.18;100.00;98804.03;5071497;28;20025;-58
2022/08/21 04:23:12;;;;;;;9.05;2.65;;;;;;;11.21;100.00;98820.91;5067447;28;20040;-58
2022/08/21 04:25:38;;;;;;;4.80;2.70;;;;;;;11.26;100.00;98815.72;5060244;28;20021;-58
2022/08/21 04:28:04;;;;;;;4.50;2.53;;;;;;;11.24;100.00;98820.50;5057444;28;20035;-58
2022/08/21 04:30:29;;;;;;;5.15;2.72;;;;;;;11.21;100.00;98826.31;5056108;28;20029;-58
2022/08/21 04:32:56;;;;;;;8.38;2.70;;;;;;;11.25;100.00;98823.00;5068495;28;20106;-58
2022/08/21 04:35:23;;;;;;;4.78;2.63;;;;;;;11.22;100.00;98830.72;5064163;28;20029;-58
2022/08/21 04:37:49;;;;;;;6.22;2.65;;;;;;;11.21;100.00;98843.41;5063561;28;20031;-58
2022/08/21 04:40:17;;;;;;;5.72;3.08;;;;;;;11.34;100.00;98835.31;5054532;28;20067;-58
2022/08/21 04:42:51;;;;;;;7.22;2.65;;;;;;;11.34;100.00;98831.75;5068970;28;20020;-58
2022/08/21 04:45:21;;;;;;;7.53;2.67;;;;;;;11.35;100.00;98839.69;5060733;28;20016;-59
2022/08/21 04:47:52;;;;;;;6.30;2.50;;;;;;;11.32;100.00;98840.09;5068728;28;20472;-58
2022/08/21 04:50:18;;;;;;;4.65;2.83;;;;;;;11.33;100.00;98847.19;5067651;28;20503;-58
2022/08/21 04:52:44;;;;;;;3.55;2.65;;;;;;;11.48;100.00;98846.97;5066063;28;20068;-58
2022/08/21 04:55:10;;;;;;;4.65;3.10;;;;;;;11.57;100.00;98845.72;5062174;28;20066;-58
2022/08/21 04:57:37;;;;;;;6.82;2.72;;;;;;;11.58;100.00;98846.53;5065079;28;20024;-58
2022/08/21 05:00:05;;;;;;;5.10;2.90;;;;;;;11.77;100.00;98850.31;5066716;28;20479;-59
2022/08/21 05:02:32;;;;;;;6.25;2.67;;;;;;;11.79;100.00;98853.66;5068639;28;20025;-58
2022/08/21 05:04:59;;;;;;;5.80;2.72;;;;;;;11.76;100.00;98844.06;5060094;28;20025;-59
2022/08/21 05:07:29;;;;;;;5.53;3.10;;;;;;;11.91;100.00;98854.69;5056526;28;20070;-59
2022/08/21 05:09:55;;;;;;;5.20;2.50;;;;;;;11.90;100.00;98853.03;5062954;28;20029;-59
2022/08/21 05:14:49;;;;;;;5.37;2.80;;;;;;;11.99;100.00;98856.34;5079650;28;20044;-58
2022/08/21 05:17:15;;;;;;;5.40;2.80;;;;;;;12.13;100.00;98855.28;5063348;28;20274;-59
2022/08/21 05:19:40;;;;;;;4.50;2.85;;;;;;;12.30;100.00;98862.97;5080160;28;20430;-59
2022/08/21 05:22:06;;;;;;;5.90;2.85;;;;;;;12.44;100.00;98870.88;5059025;28;20016;-59
2022/08/21 05:24:32;;;;;;;5.68;2.67;;;;;;;12.65;100.00;98863.47;5044888;28;20609;-59
2022/08/21 05:26:57;;;;;;;6.55;2.78;;;;;;;12.78;100.00;98865.28;5045551;28;20375;-59
2022/08/21 05:29:22;;;;;;;6.93;2.78;;;;;;;12.85;100.00;98866.91;5046780;28;20053;-59
2022/08/21 05:31:48;;;;;;;5.65;3.00;;;;;;;13.00;100.00;98871.25;5037055;28;20024;-60
2022/08/21 05:34:19;;;;;;;4.20;2.65;;;;;;;13.13;100.00;98871.16;5047056;28;20032;-60
2022/08/21 05:36:45;;;;;;;5.22;2.60;;;;;;;13.34;100.00;98868.13;5033751;28;20183;-60
2022/08/21 05:39:10;;;;;;;5.43;2.63;;;;;;;13.52;100.00;98875.53;5042535;28;20139;-59
2022/08/21 05:41:36;;;;;;;4.35;2.50;;;;;;;13.72;100.00;98878.06;5047011;28;20078;-59
2022/08/21 05:44:01;;;;;;;3.33;2.28;;;;;;;13.84;100.00;98875.47;5039120;28;20021;-59
2022/08/21 05:46:27;;;;;;;3.00;2.10;;;;;;;13.99;100.00;98873.25;5051960;28;20028;-60
2022/08/21 05:48:52;;;;;;;3.97;2.50;;;;;;;14.07;100.00;98874.00;5044218;28;20075;-60
2022/08/21 05:51:18;;;;;;;7.97;2.83;;;;;;;14.29;100.00;98875.25;5051345;28;20428;-57
2022/08/21 05:53:44;;;;;;;5.63;2.30;;;;;;;14.44;100.00;98877.59;5043319;28;20118;-62
2022/08/21 05:56:11;;;;;;;3.78;2.67;;;;;;;14.68;100.00;98876.72;5041903;28;20036;-58
2022/08/21 05:58:36;;;;;;;4.18;2.40;;;;;;;15.13;100.00;98870.88;5040961;28;20054;-58
2022/08/21 06:01:04;;;;;;;3.70;2.22;;;;;;;15.60;100.00;98872.09;5055257;28;20581;-58
2022/08/21 06:03:33;;;;;;;3.58;2.28;;;;;;;16.65;100.00;98861.16;5046244;28;20030;-59
2022/08/21 06:05:59;;;;;;;4.10;2.20;;;;;;;18.28;87.05;98867.06;5047342;28;20115;-58
2022/08/21 06:08:25;;;;;;;5.38;2.17;;;;;;;20.16;72.85;98866.66;5043918;28;20020;-61
2022/08/21 06:10:52;;;;;;;2.72;1.45;;;;;;;22.08;62.42;98855.66;5041250;28;20028;-59
2022/08/21 06:13:19;;;;;;;6.95;1.75;;;;;;;23.92;55.88;98865.06;5036996;28;20468;-58
2022/08/21 06:15:45;;;;;;;4.22;1.90;;;;;;;24.38;53.45;98864.63;5034863;28;20024;-58
2022/08/21 06:18:11;;;;;;;4.45;1.98;;;;;;;24.74;53.29;98870.63;5038041;28;20502;-58
2022/08/21 06:20:37;;;;;;;7.15;2.40;;;;;;;25.51;50.29;98867.66;5043970;28;20529;-58
2022/08/21 06:23:03;;;;;;;4.00;2.20;;;;;;;26.45;48.72;98860.28;5053905;28;20023;-59
2022/08/21 06:25:29;;;;;;;3.20;2.08;;;;;;;25.89;47.30;98867.66;5047138;28;20107;-59
2022/08/21 06:28:04;;;;;;;4.90;2.00;;;;;;;25.78;48.51;98868.91;5037486;28;20021;-58
2022/08/21 06:30:32;;;;;;;4.47;2.15;;;;;;;25.71;47.87;98860.19;5049205;28;20464;-58
2022/08/21 06:32:57;;;;;;;2.25;1.70;;;;;;;26.50;46.39;98862.16;5041887;28;20502;-58
2022/08/21 06:35:24;;;;;;;5.22;2.00;;;;;;;27.28;43.56;98861.13;5051895;28;20024;-58
2022/08/21 06:37:49;;;;;;;5.90;2.00;;;;;;;27.33;43.68;98857.41;5045327;28;20032;-59
2022/08/21 06:40:15;;;;;;;8.52;2.00;;;;;;;28.58;41.66;98858.47;5054242;28;20509;-59
2022/08/21 06:42:40;;;;;;;8.55;1.85;;;;;;;28.96;40.47;98855.16;5039036;28;20025;-59
2022/08/21 06:45:06;;;;;;;4.55;1.73;;;;;;;29.28;39.95;98855.88;5045456;28;20021;-59
2022/08/21 06:47:31;;;;;;;4.63;1.90;;;;;;;29.49;39.27;98851.31;5039818;28;20032;-60
2022/08/21 06:49:57;;;;;;;2.97;1.70;;;;;;;29.04;39.48;98846.00;5042473;28;20024;-59
2022/08/21 06:52:22;;;;;;;3.08;1.83;;;;;;;29.23;39.46;98853.25;5050269;28;20381;-60
2022/08/21 06:54:47;;;;;;;2.97;1.77;;;;;;;30.02;39.19;98846.53;5035930;28;20029;-60
2022/08/21 06:57:13;;;;;;;3.30;1.83;;;;;;;30.22;38.40;98845.00;5040576;28;20041;-61
2022/08/21 06:59:38;;;;;;;4.07;1.80;;;;;;;29.99;39.08;98847.19;5039608;28;20056;-61
2022/08/21 07:02:04;;;;;;;6.03;1.88;;;;;;;30.91;37.43;98843.13;5046210;28;20043;-60
2022/08/21 07:04:29;;;;;;;3.85;1.60;;;;;;;31.75;36.38;98840.41;5046468;28;20071;-60
2022/08/21 07:06:55;;;;;;;6.53;1.80;;;;;;;31.28;36.43;98835.00;5045758;28;20064;-61
2022/08/21 07:09:20;;;;;;;4.93;1.77;;;;;;;32.31;35.03;98841.66;5043250;28;20025;-60
2022/08/21 07:11:50;;;;;;;2.85;1.48;;;;;;;29.37;38.74;98842.78;5039836;28;20036;-60
2022/08/21 07:14:15;;;;;;;3.05;1.48;;;;;;;31.33;36.82;98837.59;5042869;28;20480;-60
2022/08/21 07:16:41;;;;;;;4.22;1.80;;;;;;;31.69;36.23;98841.78;5043513;28;20110;-60
2022/08/21 07:19:06;;;;;;;5.85;1.63;;;;;;;31.58;36.66;98845.00;5050500;28;20029;-60
2022/08/21 07:21:32;;;;;;;4.97;1.77;;;;;;;31.95;35.28;98842.38;5042311;28;20024;-60
2022/08/21 07:23:57;;;;;;;6.05;1.90;;;;;;;33.04;33.47;98842.94;5044510;28;20039;-60
2022/08/21 07:26:23;;;;;;;6.82;1.90;;;;;;;32.96;33.28;98836.25;5044890;28;20033;-61
2022/08/21 07:28:50;;;;;;;4.65;1.92;;;;;;;33.04;33.71;98834.53;5041399;28;20111;-62
2022/08/21 07:31:18;;;;;;;3.17;1.60;;;;;;;33.01;33.06;98839.97;5046452;28;20574;-61
2022/08/21 07:33:44;;;;;;;3.47;1.73;;;;;;;33.31;32.04;98841.34;5046604;28;20032;-60
2022/08/21 07:36:10;;;;;;;5.15;1.55;;;;;;;32.85;33.92;98834.25;5038325;28;20499;-61
2022/08/21 07:38:36;;;;;;;5.32;1.85;;;;;;;33.00;33.72;98832.72;5040137;28;20476;-61
2022/08/21 07:41:02;;;;;;;8.23;2.00;;;;;;;31.70;35.07;98841.41;5043814;28;20040;-61
2022/08/21 07:43:29;;;;;;;5.35;2.25;;;;;;;32.17;34.11;98827.16;5046605;28;20456;-61
2022/08/21 07:45:55;;;;;;;8.07;1.92;;;;;;;33.19;32.57;98827.34;5044158;28;20029;-61
2022/08/21 07:48:22;;;;;;;3.38;1.80;;;;;;;34.07;31.82;98826.75;5050710;28;20031;-61
2022/08/21 07:50:48;;;;;;;3.40;1.90;;;;;;;33.41;31.97;98830.81;5053836;28;20029;-61
2022/08/21 07:53:14;;;;;;;6.72;2.40;;;;;;;33.92;31.07;98826.31;5051557;28;20117;-61
2022/08/21 07:55:39;;;;;;;6.13;2.20;;;;;;;35.00;30.61;98818.66;5045907;28;20111;-61
2022/08/21 07:58:05;;;;;;;3.83;1.73;;;;;;;35.13;30.28;98819.41;5050505;28;20036;-61
2022/08/21 08:00:30;;;;;;;4.28;1.73;;;;;;;35.94;28.71;98818.72;5050453;28;20387;-63
2022/08/21 08:02:57;;;;;;;7.15;2.05;;;;;;;35.98;28.44;98823.22;5046200;28;20031;-63
2022/08/21 08:05:27;;;;;;;6.68;2.25;;;;;;;36.70;27.89;98821.72;5066334;28;20098;-61
2022/08/21 08:07:52;;;;;;;3.65;1.90;;;;;;;36.58;28.69;98822.75;5055161;28;20484;-61
2022/08/21 08:10:19;;;;;;;8.38;2.25;;;;;;;36.20;28.81;98818.81;5054648;28;20039;-61
2022/08/21 08:12:45;;;;;;;7.70;2.47;;;;;;;34.17;30.99;98806.56;5045416;28;20060;-63
2022/08/21 08:15:15;;;;;;;3.35;1.80;;;;;;;34.40;31.10;98799.16;5036661;28;20028;-63
2022/08/21 08:17:40;;;;;;;5.57;2.10;;;;;;;35.14;30.64;98803.34;5043833;28;20028;-63
2022/08/21 08:20:08;;;;;;;4.57;1.80;;;;;;;36.07;29.94;98805.31;5043255;28;20032;-63
2022/08/21 08:22:35;;;;;;;5.63;1.80;;;;;;;36.31;29.75;98802.13;5040764;28;20091;-61
2022/08/21 08:25:01;;;;;;;3.97;1.88;;;;;;;36.88;29.00;98802.28;5039876;28;20082;-61
2022/08/21 08:27:27;;;;;;;3.67;1.90;;;;;;;35.84;29.53;98800.41;5036169;28;20030;-61
2022/08/21 08:29:53;;;;;;;4.78;2.00;;;;;;;36.00;28.90;98794.72;5046358;28;20024;-61
2022/08/21 08:32:19;;;;;;;5.25;2.33;;;;;;;37.26;28.18;98784.31;5043742;28;20031;-61
2022/08/21 08:34:46;;;;;;;4.75;2.13;;;;;;;36.72;27.94;98782.69;5044272;28;20025;-61
2022/08/21 08:37:12;;;;;;;3.72;2.10;;;;;;;36.38;28.70;98788.16;5047295;28;20533;-61
2022/08/21 08:39:37;;;;;;;3.88;2.10;;;;;;;36.90;28.75;98788.63;5045670;28;20033;-61
2022/08/21 08:42:24;;;;;;;4.15;1.80;;;;;;;38.73;26.83;98779.44;5047498;28;20081;-61
2022/08/21 08:44:56;;;;;;;4.45;2.20;;;;;;;36.95;27.80;98781.84;5037395;28;20017;-61
2022/08/21 08:47:24;;;;;;;9.38;2.10;;;;;;;37.55;27.44;98773.44;5043935;28;20120;-61
2022/08/21 08:49:58;;;;;;;4.85;1.90;;;;;;;37.76;27.31;98778.50;5044129;28;20127;-61
2022/08/21 08:52:36;;;;;;;4.80;2.00;;;;;;;38.37;26.92;98773.47;5050534;28;20479;-61
2022/08/21 08:55:11;;;;;;;5.15;2.17;;;;;;;38.47;26.30;98769.97;5041462;28;20021;-61
2022/08/21 08:57:38;;;;;;;4.40;2.20;;;;;;;39.11;26.33;98757.47;5046355;28;20107;-61
2022/08/21 09:00:10;;;;;;;4.47;2.10;;;;;;;38.56;25.69;98761.13;5056434;28;20173;-62
2022/08/21 09:02:40;;;;;;;6.97;2.70;;;;;;;37.29;26.56;98765.81;5045028;28;20447;-61
2022/08/21 09:05:07;;;;;;;3.60;2.50;;;;;;;33.55;31.48;98761.94;5068484;28;20154;-61
2022/08/21 09:08:14;;;;;;;4.32;2.47;;;;;;;36.12;28.58;98760.75;5056974;28;20372;-60
2022/08/21 09:11:02;;;;;;;6.67;2.40;;;;;;;36.50;27.71;98766.59;4995914;28;20095;-61
2022/08/21 09:13:27;;;;;;;;;;;;;;;35.74;29.67;98762.44;5043181;28;20056;-60
2022/08/21 09:16:37;;;;;;;3.30;2.10;;;;;;;37.08;28.36;98757.88;5043558;28;19964;-61
2022/08/21 09:19:27;;;;;;;5.25;2.17;;;;;;;37.02;27.97;98759.34;5046190;28;20278;-61
2022/08/21 09:21:59;;;;;;;4.25;2.03;;;;;;;38.18;26.90;98751.91;5035953;28;20028;-61
2022/08/21 09:24:40;;;;;;;5.97;2.42;;;;;;;36.26;28.30;98760.16;5049130;28;20024;-61
2022/08/21 09:27:12;;;;;;;4.70;2.13;;;;;;;37.84;26.65;98746.31;5048119;28;20067;-61
2022/08/21 09:29:41;;;;;;;9.05;2.42;;;;;;;37.40;26.94;98749.00;5053495;28;20480;-60
2022/08/21 09:32:39;;;;;;;5.95;2.13;;;;;;;37.73;26.78;98756.69;5039263;28;20485;-61
2022/08/21 09:35:15;;;;;;;5.93;2.25;;;;;;;38.69;25.89;98741.84;5044113;28;20044;-63
2022/08/21 09:38:02;;;;;;;5.63;2.00;;;;;;;38.75;24.87;98740.25;5046826;28;20403;-62
2022/08/21 09:40:39;;;;;;;4.35;2.00;;;;;;;38.27;25.83;98746.75;5051800;28;20028;-61
2022/08/21 09:43:13;;;;;;;4.72;1.92;;;;;;;36.88;26.39;98742.25;5049776;28;20036;-62
2022/08/21 09:45:41;;;;;;;3.72;2.10;;;;;;;37.85;25.81;98736.63;5051349;28;20021;-61
2022/08/21 09:48:18;;;;;;;5.20;2.28;;;;;;;37.12;26.29;98736.16;5050340;28;20426;-61
2022/08/21 09:50:44;;;;;;;5.18;2.60;;;;;;;37.43;25.70;98734.13;5040016;28;20021;-61
2022/08/21 09:53:20;;;;;;;7.60;2.58;;;;;;;37.10;26.36;98729.28;5044999;28;20439;-61
2022/08/21 09:58:59;;;;;;;5.80;1.80;;;;;;;36.88;26.33;98719.69;5063183;28;20063;-61
2022/08/21 10:01:25;;;;;;;6.50;2.20;;;;;;;34.91;28.71;98720.47;5047559;28;20049;-60
2022/08/21 10:04:07;;;;;;;6.03;2.00;;;;;;;36.24;26.80;98722.31;5044874;28;20472;-62
2022/08/21 10:06:34;;;;;;;3.30;1.90;;;;;;;36.93;25.98;98716.53;5052723;28;20044;-61
2022/08/21 10:09:19;;;;;;;3.70;1.77;;;;;;;37.67;26.04;98718.69;5042751;28;20077;-62
2022/08/21 10:11:51;;;;;;;6.60;2.22;;;;;;;38.13;23.68;98710.69;5047124;28;20021;-62
2022/08/21 10:14:29;;;;;;;4.07;2.00;;;;;;;37.77;24.34;98717.19;5044829;28;20021;-60
2022/08/21 10:17:06;;;;;;;4.60;1.90;;;;;;;39.08;24.19;98716.63;5058198;28;20033;-62
2022/08/21 10:19:34;;;;;;;6.18;2.15;;;;;;;40.53;23.21;98713.72;5048969;28;20028;-61
2022/08/21 10:22:13;;;;;;;6.32;2.17;;;;;;;39.31;23.85;98713.50;5055780;28;20034;-64
2022/08/21 10:25:05;;;;;;;7.07;2.40;;;;;;;38.91;23.57;98706.84;5046499;28;20032;-66
2022/08/21 10:27:40;;;;;;;5.60;2.25;;;;;;;40.06;22.18;98695.88;5050189;28;20033;-65
2022/08/21 10:30:12;;;;;;;4.00;2.00;;;;;;;38.00;24.59;98702.91;5034663;28;20491;-65
2022/08/21 10:33:04;;;;;;;4.53;1.80;;;;;;;38.60;24.99;98694.13;5041877;28;20119;-65
2022/08/21 10:35:42;;;;;;;4.40;2.17;;;;;;;38.44;24.47;98694.44;5013015;28;20040;-60
2022/08/21 10:38:46;;;;;;;5.05;1.80;;;;;;;39.95;23.35;98695.06;5046918;28;20025;-69
2022/08/21 10:41:40;;;;;;;5.88;2.10;;;;;;;40.29;22.24;98693.47;5021064;28;20500;-67
2022/08/21 10:44:19;;;;;;;6.45;2.50;;;;;;;38.79;23.24;98682.50;5049928;28;20311;-66
2022/08/21 10:47:29;;;;;;;5.15;2.53;;;;;;;38.18;24.39;98683.31;5037921;28;20090;-67
2022/08/21 10:50:19;;;;;;;3.30;1.80;;;;;;;38.95;23.63;98679.38;5013534;28;20131;-66
2022/08/21 10:53:23;;;;;;;3.22;1.90;;;;;;;39.43;23.24;98681.19;5043103;28;20033;-66
2022/08/21 10:55:59;;;;;;;5.30;2.20;;;;;;;39.18;23.26;98684.75;5033533;28;20037;-68
2022/08/21 10:58:45;;;;;;;4.50;1.77;;;;;;;40.45;21.30;98684.56;5040964;28;20678;-68
2022/08/21 11:01:17;;;;;;;5.38;2.33;;;;;;;39.60;21.92;98685.31;5033910;28;20036;-68
2022/08/21 11:03:50;;;;;;;4.43;2.10;;;;;;;38.36;22.38;98675.75;5047136;28;20326;-67
2022/08/21 11:06:26;;;;;;;7.78;1.90;;;;;;;37.93;24.22;98669.72;5034670;28;20064;-64
2022/08/21 11:09:08;;;;;;;5.22;2.03;;;;;;;38.10;24.17;98674.75;5045501;28;20563;-64
2022/08/21 11:11:44;;;;;;;6.68;2.25;;;;;;;38.88;23.17;98665.19;5043945;28;20028;-64
2022/08/21 11:14:21;;;;;;;4.75;2.00;;;;;;;38.87;22.60;98665.59;5042963;28;20363;-64
2022/08/21 11:16:59;;;;;;;5.40;1.92;;;;;;;39.67;22.07;98659.84;5043670;28;20377;-64
2022/08/21 11:19:34;;;;;;;;;;;;;;;40.82;21.11;98665.44;5050803;28;20036;-64
2022/08/21 11:22:09;;;;;;;4.38;1.83;;;;;;;40.39;20.54;98666.34;5038234;28;19920;-64
2022/08/21 11:24:56;;;;;;;3.63;1.77;;;;;;;39.16;21.60;98661.69;5045016;28;22123;-64
2022/08/21 11:27:28;;;;;;;6.63;2.00;;;;;;;39.78;21.79;98659.88;5039152;28;20028;-64
2022/08/21 11:29:56;;;;;;;6.05;1.77;;;;;;;39.97;21.51;98658.66;5043480;28;20064;-64
2022/08/21 11:32:46;;;;;;;3.80;1.65;;;;;;;38.83;21.73;98651.44;5039688;28;20497;-64
2022/08/21 11:35:20;;;;;;;5.10;1.80;;;;;;;40.17;21.36;98650.56;5042710;28;20021;-64
2022/08/21 11:38:03;;;;;;;3.75;1.75;;;;;;;39.88;21.05;98653.41;5040207;28;20029;-64
2022/08/21 11:40:40;;;;;;;4.15;1.70;;;;;;;39.31;22.00;98653.25;5037502;28;20445;-63
2022/08/21 11:43:44;;;;;;;6.63;2.20;;;;;;;39.34;20.70;98649.66;5049217;28;20123;-63
2022/08/21 11:46:22;;;;;;;5.18;1.80;;;;;;;39.22;21.51;98643.13;5037952;28;20032;-64